Disclaimer

Please do not use the information listed here in-flight or in-navigation, as they are not provided to us by the airports but are provided by volunteers, so they might be outdated.

Search


Regions


Airport information page

Radio informations:
Aerodrome flight information system (AFIS) - 118.85 MHz
RDO - 5637 MHz

Airport informations:
Latitude: 37° 25' 22.05" N
Longitude: 024° 57' 03.37" E
Elevation: 236 feet - 72 meters
Operating hours: Remarks
Operating agency: Civil government, landing fees and diplomatic clearance may be required
Timezone: UTC+2(+3DT) - Last Sunday in March to last Sunday in October
Fuel: N/A

Runway information:
18/36 - 3542 x 98 feet< - >1080 x 30 meters

Recent METARs:
LGSO 160550Z AUTO 03016KT //// // ////// 13/05 Q1021 RE//
LGSO 160620Z AUTO 02015KT //// // ////// 13/05 Q1022 RE//
LGSO 160650Z 01014KT 9999 SCT018 13/06 Q1022

Airport on the map: